sensor_id;sensor_type;location;lat;lon;timestamp;temperature;humidity
3690;DHT22;1861;50.240;8.596;2023-02-28T00:01:15;5.50;82.90
3690;DHT22;1861;50.240;8.596;2023-02-28T00:03:43;5.40;83.40
3690;DHT22;1861;50.240;8.596;2023-02-28T00:06:11;5.40;83.60
3690;DHT22;1861;50.240;8.596;2023-02-28T00:08:40;5.30;83.40
3690;DHT22;1861;50.240;8.596;2023-02-28T00:11:10;5.40;83.40
3690;DHT22;1861;50.240;8.596;2023-02-28T00:13:40;5.40;83.80
3690;DHT22;1861;50.240;8.596;2023-02-28T00:16:11;5.40;83.80
3690;DHT22;1861;50.240;8.596;2023-02-28T00:18:40;5.40;84.00
3690;DHT22;1861;50.240;8.596;2023-02-28T00:21:09;5.40;83.70
3690;DHT22;1861;50.240;8.596;2023-02-28T00:23:37;5.30;83.80
3690;DHT22;1861;50.240;8.596;2023-02-28T00:26:06;5.30;84.10
3690;DHT22;1861;50.240;8.596;2023-02-28T00:28:36;5.20;84.30
3690;DHT22;1861;50.240;8.596;2023-02-28T00:31:04;5.20;84.50
3690;DHT22;1861;50.240;8.596;2023-02-28T00:33:34;5.30;84.80
3690;DHT22;1861;50.240;8.596;2023-02-28T00:36:05;5.30;84.90
3690;DHT22;1861;50.240;8.596;2023-02-28T00:38:36;5.30;85.10
3690;DHT22;1861;50.240;8.596;2023-02-28T00:41:05;5.20;84.80
3690;DHT22;1861;50.240;8.596;2023-02-28T00:43:36;5.20;85.00
3690;DHT22;1861;50.240;8.596;2023-02-28T00:46:04;5.30;85.20
3690;DHT22;1861;50.240;8.596;2023-02-28T00:48:33;5.30;85.30
3690;DHT22;1861;50.240;8.596;2023-02-28T00:51:01;5.30;85.40
3690;DHT22;1861;50.240;8.596;2023-02-28T00:53:30;5.30;85.50
3690;DHT22;1861;50.240;8.596;2023-02-28T00:55:59;5.30;85.80
3690;DHT22;1861;50.240;8.596;2023-02-28T00:58:28;5.30;85.70
3690;DHT22;1861;50.240;8.596;2023-02-28T01:00:57;5.20;85.90
3690;DHT22;1861;50.240;8.596;2023-02-28T01:03:25;5.20;86.00
3690;DHT22;1861;50.240;8.596;2023-02-28T01:05:53;5.20;86.10
3690;DHT22;1861;50.240;8.596;2023-02-28T01:08:21;5.10;86.20
3690;DHT22;1861;50.240;8.596;2023-02-28T01:10:50;5.10;86.20
3690;DHT22;1861;50.240;8.596;2023-02-28T01:13:18;5.10;86.20
3690;DHT22;1861;50.240;8.596;2023-02-28T01:15:51;5.10;86.40
3690;DHT22;1861;50.240;8.596;2023-02-28T01:18:21;5.10;86.60
3690;DHT22;1861;50.240;8.596;2023-02-28T01:20:50;5.10;86.70
3690;DHT22;1861;50.240;8.596;2023-02-28T01:23:19;5.10;86.50
3690;DHT22;1861;50.240;8.596;2023-02-28T01:25:48;5.10;87.00
3690;DHT22;1861;50.240;8.596;2023-02-28T01:28:16;5.10;86.50
3690;DHT22;1861;50.240;8.596;2023-02-28T01:30:49;5.10;86.80
3690;DHT22;1861;50.240;8.596;2023-02-28T01:33:18;5.10;86.20
3690;DHT22;1861;50.240;8.596;2023-02-28T01:35:46;5.10;86.20
3690;DHT22;1861;50.240;8.596;2023-02-28T01:38:14;5.00;86.00
3690;DHT22;1861;50.240;8.596;2023-02-28T01:40:49;4.90;86.10
3690;DHT22;1861;50.240;8.596;2023-02-28T01:43:21;4.90;86.10
3690;DHT22;1861;50.240;8.596;2023-02-28T01:45:52;4.90;86.00
3690;DHT22;1861;50.240;8.596;2023-02-28T01:48:23;4.90;85.80
3690;DHT22;1861;50.240;8.596;2023-02-28T01:50:53;4.90;85.30
3690;DHT22;1861;50.240;8.596;2023-02-28T01:53:26;4.80;85.30
3690;DHT22;1861;50.240;8.596;2023-02-28T01:55:56;4.90;85.30
3690;DHT22;1861;50.240;8.596;2023-02-28T01:58:24;5.00;85.40
3690;DHT22;1861;50.240;8.596;2023-02-28T02:00:54;5.00;85.30
3690;DHT22;1861;50.240;8.596;2023-02-28T02:03:22;5.00;85.10
3690;DHT22;1861;50.240;8.596;2023-02-28T02:05:51;5.00;84.70
3690;DHT22;1861;50.240;8.596;2023-02-28T02:08:21;4.90;84.60
3690;DHT22;1861;50.240;8.596;2023-02-28T02:10:52;4.90;84.80
3690;DHT22;1861;50.240;8.596;2023-02-28T02:13:46;4.90;84.40
3690;DHT22;1861;50.240;8.596;2023-02-28T02:16:32;4.90;84.90
3690;DHT22;1861;50.240;8.596;2023-02-28T02:19:16;4.90;84.80
3690;DHT22;1861;50.240;8.596;2023-02-28T02:22:03;4.90;84.50
3690;DHT22;1861;50.240;8.596;2023-02-28T02:24:49;4.90;84.60
3690;DHT22;1861;50.240;8.596;2023-02-28T02:27:27;4.90;84.30
3690;DHT22;1861;50.240;8.596;2023-02-28T02:30:32;4.80;84.30
3690;DHT22;1861;50.240;8.596;2023-02-28T02:33:19;4.80;84.30
3690;DHT22;1861;50.240;8.596;2023-02-28T02:35:56;4.90;84.00
3690;DHT22;1861;50.240;8.596;2023-02-28T02:38:32;4.80;83.80
3690;DHT22;1861;50.240;8.596;2023-02-28T02:41:08;4.80;84.00
3690;DHT22;1861;50.240;8.596;2023-02-28T02:43:43;4.80;84.00
3690;DHT22;1861;50.240;8.596;2023-02-28T02:46:18;4.70;84.20
3690;DHT22;1861;50.240;8.596;2023-02-28T02:48:48;4.70;84.00
3690;DHT22;1861;50.240;8.596;2023-02-28T02:51:21;4.80;84.40
3690;DHT22;1861;50.240;8.596;2023-02-28T02:53:54;4.70;83.90
3690;DHT22;1861;50.240;8.596;2023-02-28T02:56:26;4.70;84.40
3690;DHT22;1861;50.240;8.596;2023-02-28T02:58:59;4.70;84.20
3690;DHT22;1861;50.240;8.596;2023-02-28T03:01:31;4.70;84.00
3690;DHT22;1861;50.240;8.596;2023-02-28T03:04:02;4.70;84.10
3690;DHT22;1861;50.240;8.596;2023-02-28T03:06:32;4.60;83.90
3690;DHT22;1861;50.240;8.596;2023-02-28T03:09:00;4.70;83.70
3690;DHT22;1861;50.240;8.596;2023-02-28T03:11:29;4.70;83.60
3690;DHT22;1861;50.240;8.596;2023-02-28T03:14:24;4.60;83.50
3690;DHT22;1861;50.240;8.596;2023-02-28T03:17:14;4.60;83.60
3690;DHT22;1861;50.240;8.596;2023-02-28T03:19:55;4.70;83.60
3690;DHT22;1861;50.240;8.596;2023-02-28T03:22:46;4.60;83.70
3690;DHT22;1861;50.240;8.596;2023-02-28T03:25:25;4.60;83.70
3690;DHT22;1861;50.240;8.596;2023-02-28T03:28:00;4.60;83.60
3690;DHT22;1861;50.240;8.596;2023-02-28T03:30:36;4.60;83.60
3690;DHT22;1861;50.240;8.596;2023-02-28T03:33:10;4.60;83.90
3690;DHT22;1861;50.240;8.596;2023-02-28T03:35:43;4.60;84.00
3690;DHT22;1861;50.240;8.596;2023-02-28T03:38:19;4.60;83.50
3690;DHT22;1861;50.240;8.596;2023-02-28T03:40:50;4.60;83.40
3690;DHT22;1861;50.240;8.596;2023-02-28T03:43:23;4.60;83.60
3690;DHT22;1861;50.240;8.596;2023-02-28T03:45:54;4.60;83.50
3690;DHT22;1861;50.240;8.596;2023-02-28T03:48:27;4.60;83.20
3690;DHT22;1861;50.240;8.596;2023-02-28T03:50:58;4.50;83.60
3690;DHT22;1861;50.240;8.596;2023-02-28T03:53:31;4.50;83.60
3690;DHT22;1861;50.240;8.596;2023-02-28T03:56:05;4.60;83.50
3690;DHT22;1861;50.240;8.596;2023-02-28T03:58:39;4.60;83.40
3690;DHT22;1861;50.240;8.596;2023-02-28T04:01:12;4.60;83.00
3690;DHT22;1861;50.240;8.596;2023-02-28T04:03:41;4.60;82.80
3690;DHT22;1861;50.240;8.596;2023-02-28T04:06:15;4.50;82.80
3690;DHT22;1861;50.240;8.596;2023-02-28T04:08:46;4.50;82.80
3690;DHT22;1861;50.240;8.596;2023-02-28T04:11:20;4.50;82.80
3690;DHT22;1861;50.240;8.596;2023-02-28T04:13:49;4.50;82.80
3690;DHT22;1861;50.240;8.596;2023-02-28T04:16:18;4.40;82.80
3690;DHT22;1861;50.240;8.596;2023-02-28T04:19:01;4.40;82.90
3690;DHT22;1861;50.240;8.596;2023-02-28T04:21:31;4.50;82.70
3690;DHT22;1861;50.240;8.596;2023-02-28T04:24:01;4.40;82.70
3690;DHT22;1861;50.240;8.596;2023-02-28T04:26:30;4.40;82.90
3690;DHT22;1861;50.240;8.596;2023-02-28T04:28:59;4.40;82.80
3690;DHT22;1861;50.240;8.596;2023-02-28T04:31:27;4.30;82.60
3690;DHT22;1861;50.240;8.596;2023-02-28T04:33:56;4.40;83.00
3690;DHT22;1861;50.240;8.596;2023-02-28T04:36:25;4.30;82.50
3690;DHT22;1861;50.240;8.596;2023-02-28T04:38:53;4.40;82.70
3690;DHT22;1861;50.240;8.596;2023-02-28T04:41:23;4.30;82.60
3690;DHT22;1861;50.240;8.596;2023-02-28T04:43:51;4.40;82.60
3690;DHT22;1861;50.240;8.596;2023-02-28T04:46:19;4.50;82.60
3690;DHT22;1861;50.240;8.596;2023-02-28T04:48:47;4.50;82.50
3690;DHT22;1861;50.240;8.596;2023-02-28T04:51:18;4.40;81.90
3690;DHT22;1861;50.240;8.596;2023-02-28T04:53:47;4.40;82.10
3690;DHT22;1861;50.240;8.596;2023-02-28T04:56:17;4.40;82.00
3690;DHT22;1861;50.240;8.596;2023-02-28T04:58:46;4.30;82.00
3690;DHT22;1861;50.240;8.596;2023-02-28T05:01:20;4.50;82.10
3690;DHT22;1861;50.240;8.596;2023-02-28T05:03:49;4.50;82.00
3690;DHT22;1861;50.240;8.596;2023-02-28T05:06:18;4.50;82.20
3690;DHT22;1861;50.240;8.596;2023-02-28T05:08:47;4.50;82.20
3690;DHT22;1861;50.240;8.596;2023-02-28T05:11:18;4.50;81.90
3690;DHT22;1861;50.240;8.596;2023-02-28T05:13:49;4.50;81.70
3690;DHT22;1861;50.240;8.596;2023-02-28T05:16:17;4.50;81.30
3690;DHT22;1861;50.240;8.596;2023-02-28T05:18:45;4.40;81.60
3690;DHT22;1861;50.240;8.596;2023-02-28T05:21:26;4.50;81.80
3690;DHT22;1861;50.240;8.596;2023-02-28T05:23:55;4.50;81.80
3690;DHT22;1861;50.240;8.596;2023-02-28T05:26:24;4.50;82.10
3690;DHT22;1861;50.240;8.596;2023-02-28T05:28:54;4.60;81.90
3690;DHT22;1861;50.240;8.596;2023-02-28T05:31:22;4.70;82.10
3690;DHT22;1861;50.240;8.596;2023-02-28T05:33:50;4.60;81.40
3690;DHT22;1861;50.240;8.596;2023-02-28T05:36:19;4.60;81.30
3690;DHT22;1861;50.240;8.596;2023-02-28T05:38:47;4.60;81.20
3690;DHT22;1861;50.240;8.596;2023-02-28T05:41:17;4.60;81.20
3690;DHT22;1861;50.240;8.596;2023-02-28T05:43:46;4.60;81.60
3690;DHT22;1861;50.240;8.596;2023-02-28T05:46:16;4.60;81.50
3690;DHT22;1861;50.240;8.596;2023-02-28T05:48:47;4.60;81.40
3690;DHT22;1861;50.240;8.596;2023-02-28T05:51:15;4.60;81.10
3690;DHT22;1861;50.240;8.596;2023-02-28T05:53:43;4.60;81.60
3690;DHT22;1861;50.240;8.596;2023-02-28T05:56:11;4.60;81.40
3690;DHT22;1861;50.240;8.596;2023-02-28T05:58:39;4.60;81.50
3690;DHT22;1861;50.240;8.596;2023-02-28T06:01:24;4.60;81.70
3690;DHT22;1861;50.240;8.596;2023-02-28T06:03:52;4.60;81.50
3690;DHT22;1861;50.240;8.596;2023-02-28T06:06:20;4.50;81.70
3690;DHT22;1861;50.240;8.596;2023-02-28T06:08:48;4.60;82.10
3690;DHT22;1861;50.240;8.596;2023-02-28T06:11:16;4.60;82.00
3690;DHT22;1861;50.240;8.596;2023-02-28T06:13:46;4.60;82.20
3690;DHT22;1861;50.240;8.596;2023-02-28T06:16:15;4.60;82.00
3690;DHT22;1861;50.240;8.596;2023-02-28T06:18:44;4.50;81.70
3690;DHT22;1861;50.240;8.596;2023-02-28T06:21:12;4.50;81.90
3690;DHT22;1861;50.240;8.596;2023-02-28T06:23:41;4.50;81.40
3690;DHT22;1861;50.240;8.596;2023-02-28T06:26:09;4.50;81.30
3690;DHT22;1861;50.240;8.596;2023-02-28T06:28:37;4.50;81.10
3690;DHT22;1861;50.240;8.596;2023-02-28T06:31:06;4.60;80.70
3690;DHT22;1861;50.240;8.596;2023-02-28T06:33:35;4.60;80.40
3690;DHT22;1861;50.240;8.596;2023-02-28T06:36:06;4.60;80.00
3690;DHT22;1861;50.240;8.596;2023-02-28T06:38:35;4.60;80.00
3690;DHT22;1861;50.240;8.596;2023-02-28T06:41:03;4.60;79.30
3690;DHT22;1861;50.240;8.596;2023-02-28T06:43:34;4.60;79.20
3690;DHT22;1861;50.240;8.596;2023-02-28T06:46:04;4.60;79.10
3690;DHT22;1861;50.240;8.596;2023-02-28T06:48:32;4.60;78.90
3690;DHT22;1861;50.240;8.596;2023-02-28T06:51:05;4.60;78.80
3690;DHT22;1861;50.240;8.596;2023-02-28T06:53:33;4.60;78.20
3690;DHT22;1861;50.240;8.596;2023-02-28T06:56:04;4.60;79.30
3690;DHT22;1861;50.240;8.596;2023-02-28T06:58:33;4.90;79.30
3690;DHT22;1861;50.240;8.596;2023-02-28T07:01:02;4.80;78.40
3690;DHT22;1861;50.240;8.596;2023-02-28T07:03:30;4.80;78.80
3690;DHT22;1861;50.240;8.596;2023-02-28T07:06:01;4.80;78.70
3690;DHT22;1861;50.240;8.596;2023-02-28T07:08:31;4.70;78.90
3690;DHT22;1861;50.240;8.596;2023-02-28T07:10:59;4.70;79.30
3690;DHT22;1861;50.240;8.596;2023-02-28T07:13:28;4.70;79.40
3690;DHT22;1861;50.240;8.596;2023-02-28T07:15:58;4.70;79.90
3690;DHT22;1861;50.240;8.596;2023-02-28T07:18:26;4.70;80.10
3690;DHT22;1861;50.240;8.596;2023-02-28T07:20:54;4.70;80.30
3690;DHT22;1861;50.240;8.596;2023-02-28T07:23:23;4.80;80.30
3690;DHT22;1861;50.240;8.596;2023-02-28T07:25:52;4.80;80.50
3690;DHT22;1861;50.240;8.596;2023-02-28T07:28:20;4.80;80.60
3690;DHT22;1861;50.240;8.596;2023-02-28T07:30:48;4.80;80.70
3690;DHT22;1861;50.240;8.596;2023-02-28T07:33:17;4.80;80.90
3690;DHT22;1861;50.240;8.596;2023-02-28T07:35:45;4.90;80.70
3690;DHT22;1861;50.240;8.596;2023-02-28T07:38:13;4.80;80.40
3690;DHT22;1861;50.240;8.596;2023-02-28T07:40:41;4.90;80.70
3690;DHT22;1861;50.240;8.596;2023-02-28T07:43:11;4.90;80.60
3690;DHT22;1861;50.240;8.596;2023-02-28T07:45:39;5.00;80.90
3690;DHT22;1861;50.240;8.596;2023-02-28T07:48:07;5.00;81.10
3690;DHT22;1861;50.240;8.596;2023-02-28T07:50:36;5.00;80.60
3690;DHT22;1861;50.240;8.596;2023-02-28T07:53:04;5.10;80.70
3690;DHT22;1861;50.240;8.596;2023-02-28T07:55:33;5.10;80.90
3690;DHT22;1861;50.240;8.596;2023-02-28T07:58:00;5.10;80.50
3690;DHT22;1861;50.240;8.596;2023-02-28T08:00:30;5.10;80.80
3690;DHT22;1861;50.240;8.596;2023-02-28T08:02:59;5.10;80.70
3690;DHT22;1861;50.240;8.596;2023-02-28T08:05:27;5.20;80.70
3690;DHT22;1861;50.240;8.596;2023-02-28T08:07:57;5.20;80.10
3690;DHT22;1861;50.240;8.596;2023-02-28T08:10:25;5.30;80.50
3690;DHT22;1861;50.240;8.596;2023-02-28T08:12:53;5.30;80.00
3690;DHT22;1861;50.240;8.596;2023-02-28T08:15:21;5.30;80.50
3690;DHT22;1861;50.240;8.596;2023-02-28T08:17:51;5.50;79.00
3690;DHT22;1861;50.240;8.596;2023-02-28T08:20:19;5.60;79.20
3690;DHT22;1861;50.240;8.596;2023-02-28T08:22:47;5.70;79.60
3690;DHT22;1861;50.240;8.596;2023-02-28T08:25:15;5.80;79.60
3690;DHT22;1861;50.240;8.596;2023-02-28T08:27:43;5.90;79.70
3690;DHT22;1861;50.240;8.596;2023-02-28T08:30:12;5.90;78.70
3690;DHT22;1861;50.240;8.596;2023-02-28T08:32:41;6.00;79.10
3690;DHT22;1861;50.240;8.596;2023-02-28T08:35:10;6.00;78.60
3690;DHT22;1861;50.240;8.596;2023-02-28T08:37:38;6.10;78.70
3690;DHT22;1861;50.240;8.596;2023-02-28T08:40:08;6.20;78.30
3690;DHT22;1861;50.240;8.596;2023-02-28T08:42:36;6.20;78.30
3690;DHT22;1861;50.240;8.596;2023-02-28T08:45:05;6.30;78.00
3690;DHT22;1861;50.240;8.596;2023-02-28T08:47:33;6.40;77.90
3690;DHT22;1861;50.240;8.596;2023-02-28T08:50:02;6.40;77.90
3690;DHT22;1861;50.240;8.596;2023-02-28T08:52:31;6.60;78.20
3690;DHT22;1861;50.240;8.596;2023-02-28T08:54:59;6.70;77.50
3690;DHT22;1861;50.240;8.596;2023-02-28T08:57:27;6.90;77.60
3690;DHT22;1861;50.240;8.596;2023-02-28T08:59:55;7.00;77.30
3690;DHT22;1861;50.240;8.596;2023-02-28T09:02:24;7.00;77.20
3690;DHT22;1861;50.240;8.596;2023-02-28T09:04:52;7.10;76.00
3690;DHT22;1861;50.240;8.596;2023-02-28T09:07:21;7.20;75.70
3690;DHT22;1861;50.240;8.596;2023-02-28T09:09:50;7.10;74.40
3690;DHT22;1861;50.240;8.596;2023-02-28T09:12:25;7.30;74.50
3690;DHT22;1861;50.240;8.596;2023-02-28T09:14:54;7.30;73.60
3690;DHT22;1861;50.240;8.596;2023-02-28T09:17:22;7.30;73.20
3690;DHT22;1861;50.240;8.596;2023-02-28T09:19:57;7.30;73.40
3690;DHT22;1861;50.240;8.596;2023-02-28T09:22:25;7.40;73.20
3690;DHT22;1861;50.240;8.596;2023-02-28T09:24:54;7.50;73.10
3690;DHT22;1861;50.240;8.596;2023-02-28T09:27:22;7.50;72.70
3690;DHT22;1861;50.240;8.596;2023-02-28T09:29:50;7.50;72.30
3690;DHT22;1861;50.240;8.596;2023-02-28T09:32:18;7.60;70.90
3690;DHT22;1861;50.240;8.596;2023-02-28T09:34:46;7.60;70.80
3690;DHT22;1861;50.240;8.596;2023-02-28T09:37:14;7.60;71.80
3690;DHT22;1861;50.240;8.596;2023-02-28T09:39:43;7.60;71.30
3690;DHT22;1861;50.240;8.596;2023-02-28T09:42:20;7.60;70.50
3690;DHT22;1861;50.240;8.596;2023-02-28T09:44:50;7.60;69.50
3690;DHT22;1861;50.240;8.596;2023-02-28T09:47:29;7.60;69.60
3690;DHT22;1861;50.240;8.596;2023-02-28T09:50:06;7.60;70.50
3690;DHT22;1861;50.240;8.596;2023-02-28T09:52:39;7.60;70.00
3690;DHT22;1861;50.240;8.596;2023-02-28T09:55:19;7.60;69.40
3690;DHT22;1861;50.240;8.596;2023-02-28T09:57:50;7.50;69.00
3690;DHT22;1861;50.240;8.596;2023-02-28T10:00:22;7.60;68.90
3690;DHT22;1861;50.240;8.596;2023-02-28T10:03:00;7.70;69.30
3690;DHT22;1861;50.240;8.596;2023-02-28T10:05:34;7.70;67.50
3690;DHT22;1861;50.240;8.596;2023-02-28T10:08:10;7.60;68.20
3690;DHT22;1861;50.240;8.596;2023-02-28T10:10:41;7.70;67.90
3690;DHT22;1861;50.240;8.596;2023-02-28T10:13:21;7.70;67.80
3690;DHT22;1861;50.240;8.596;2023-02-28T10:15:55;7.80;68.30
3690;DHT22;1861;50.240;8.596;2023-02-28T10:18:27;7.80;67.70
3690;DHT22;1861;50.240;8.596;2023-02-28T10:20:57;7.90;67.90
3690;DHT22;1861;50.240;8.596;2023-02-28T10:23:30;7.90;68.50
3690;DHT22;1861;50.240;8.596;2023-02-28T10:26:04;7.80;68.00
3690;DHT22;1861;50.240;8.596;2023-02-28T10:28:38;7.90;66.30
3690;DHT22;1861;50.240;8.596;2023-02-28T10:31:11;7.90;67.50
3690;DHT22;1861;50.240;8.596;2023-02-28T10:33:42;7.90;66.50
3690;DHT22;1861;50.240;8.596;2023-02-28T10:36:14;7.80;66.00
3690;DHT22;1861;50.240;8.596;2023-02-28T10:38:44;7.70;66.50
3690;DHT22;1861;50.240;8.596;2023-02-28T10:41:14;7.70;65.10
3690;DHT22;1861;50.240;8.596;2023-02-28T10:43:44;7.70;66.50
3690;DHT22;1861;50.240;8.596;2023-02-28T10:46:15;7.90;66.60
3690;DHT22;1861;50.240;8.596;2023-02-28T10:49:02;7.90;67.20
3690;DHT22;1861;50.240;8.596;2023-02-28T10:51:36;7.90;67.10
3690;DHT22;1861;50.240;8.596;2023-02-28T10:54:04;7.80;66.60
3690;DHT22;1861;50.240;8.596;2023-02-28T10:56:33;7.60;65.90
3690;DHT22;1861;50.240;8.596;2023-02-28T10:59:27;7.60;66.00
3690;DHT22;1861;50.240;8.596;2023-02-28T11:01:56;7.70;65.20
3690;DHT22;1861;50.240;8.596;2023-02-28T11:04:35;7.60;65.60
3690;DHT22;1861;50.240;8.596;2023-02-28T11:07:17;7.70;64.80
3690;DHT22;1861;50.240;8.596;2023-02-28T11:09:50;7.70;65.10
3690;DHT22;1861;50.240;8.596;2023-02-28T11:12:24;7.70;65.10
3690;DHT22;1861;50.240;8.596;2023-02-28T11:14:57;7.50;66.10
3690;DHT22;1861;50.240;8.596;2023-02-28T11:17:27;7.50;65.10
3690;DHT22;1861;50.240;8.596;2023-02-28T11:19:58;7.40;65.30
3690;DHT22;1861;50.240;8.596;2023-02-28T11:22:30;7.50;65.70
3690;DHT22;1861;50.240;8.596;2023-02-28T11:25:01;7.50;65.00
3690;DHT22;1861;50.240;8.596;2023-02-28T11:27:45;7.50;65.40
3690;DHT22;1861;50.240;8.596;2023-02-28T11:30:34;7.50;65.30
3690;DHT22;1861;50.240;8.596;2023-02-28T11:33:22;7.50;66.00
3690;DHT22;1861;50.240;8.596;2023-02-28T11:35:51;7.50;65.40
3690;DHT22;1861;50.240;8.596;2023-02-28T11:38:20;7.50;64.90
3690;DHT22;1861;50.240;8.596;2023-02-28T11:40:56;7.60;65.40
3690;DHT22;1861;50.240;8.596;2023-02-28T11:43:52;7.60;65.30
3690;DHT22;1861;50.240;8.596;2023-02-28T11:46:29;7.50;65.00
3690;DHT22;1861;50.240;8.596;2023-02-28T11:49:10;7.50;65.50
3690;DHT22;1861;50.240;8.596;2023-02-28T11:51:48;7.50;65.10
3690;DHT22;1861;50.240;8.596;2023-02-28T11:54:29;7.60;64.80
3690;DHT22;1861;50.240;8.596;2023-02-28T11:57:07;7.60;65.50
3690;DHT22;1861;50.240;8.596;2023-02-28T11:59:53;7.60;65.10
3690;DHT22;1861;50.240;8.596;2023-02-28T12:02:30;7.60;65.50
3690;DHT22;1861;50.240;8.596;2023-02-28T12:05:11;7.60;65.00
3690;DHT22;1861;50.240;8.596;2023-02-28T12:07:49;7.60;65.20
3690;DHT22;1861;50.240;8.596;2023-02-28T12:10:21;7.50;65.00
3690;DHT22;1861;50.240;8.596;2023-02-28T12:13:01;7.50;65.30
3690;DHT22;1861;50.240;8.596;2023-02-28T12:16:01;7.40;65.30
3690;DHT22;1861;50.240;8.596;2023-02-28T12:19:03;7.50;65.30
3690;DHT22;1861;50.240;8.596;2023-02-28T12:21:41;7.50;64.80
3690;DHT22;1861;50.240;8.596;2023-02-28T12:24:33;7.60;65.40
3690;DHT22;1861;50.240;8.596;2023-02-28T12:27:09;7.50;65.00
3690;DHT22;1861;50.240;8.596;2023-02-28T12:29:43;7.40;65.00
3690;DHT22;1861;50.240;8.596;2023-02-28T12:32:18;7.50;64.80
3690;DHT22;1861;50.240;8.596;2023-02-28T12:34:53;7.60;65.30
3690;DHT22;1861;50.240;8.596;2023-02-28T12:37:31;7.60;65.10
3690;DHT22;1861;50.240;8.596;2023-02-28T12:40:04;7.50;65.60
3690;DHT22;1861;50.240;8.596;2023-02-28T12:42:36;7.50;65.40
3690;DHT22;1861;50.240;8.596;2023-02-28T12:45:11;7.50;65.50
3690;DHT22;1861;50.240;8.596;2023-02-28T12:47:42;7.60;65.40
3690;DHT22;1861;50.240;8.596;2023-02-28T12:50:14;7.60;65.60
3690;DHT22;1861;50.240;8.596;2023-02-28T12:52:50;7.70;65.90
3690;DHT22;1861;50.240;8.596;2023-02-28T12:55:23;7.70;65.70
3690;DHT22;1861;50.240;8.596;2023-02-28T12:58:00;7.70;66.20
3690;DHT22;1861;50.240;8.596;2023-02-28T13:00:33;7.80;66.10
3690;DHT22;1861;50.240;8.596;2023-02-28T13:03:36;7.90;66.00
3690;DHT22;1861;50.240;8.596;2023-02-28T13:06:23;7.90;66.30
3690;DHT22;1861;50.240;8.596;2023-02-28T13:09:02;7.90;65.70
3690;DHT22;1861;50.240;8.596;2023-02-28T13:11:33;8.00;65.90
3690;DHT22;1861;50.240;8.596;2023-02-28T13:14:04;8.00;65.20
3690;DHT22;1861;50.240;8.596;2023-02-28T13:16:57;8.00;65.80
3690;DHT22;1861;50.240;8.596;2023-02-28T13:19:28;8.10;65.80
3690;DHT22;1861;50.240;8.596;2023-02-28T13:21:59;8.10;65.60
3690;DHT22;1861;50.240;8.596;2023-02-28T13:24:43;8.00;65.90
3690;DHT22;1861;50.240;8.596;2023-02-28T13:27:33;8.10;65.20
3690;DHT22;1861;50.240;8.596;2023-02-28T13:33:24;8.00;65.40
3690;DHT22;1861;50.240;8.596;2023-02-28T13:38:55;8.00;65.30
3690;DHT22;1861;50.240;8.596;2023-02-28T13:41:47;8.00;64.70
3690;DHT22;1861;50.240;8.596;2023-02-28T13:44:17;8.00;65.40
3690;DHT22;1861;50.240;8.596;2023-02-28T13:47:24;8.00;65.30
3690;DHT22;1861;50.240;8.596;2023-02-28T13:50:15;8.00;65.80
3690;DHT22;1861;50.240;8.596;2023-02-28T13:52:56;7.90;65.50
3690;DHT22;1861;50.240;8.596;2023-02-28T13:55:32;8.00;66.30
3690;DHT22;1861;50.240;8.596;2023-02-28T13:58:10;8.00;65.40
3690;DHT22;1861;50.240;8.596;2023-02-28T14:01:04;8.10;66.20
3690;DHT22;1861;50.240;8.596;2023-02-28T14:03:59;8.00;66.20
3690;DHT22;1861;50.240;8.596;2023-02-28T14:06:32;8.00;66.50
3690;DHT22;1861;50.240;8.596;2023-02-28T14:09:02;8.10;66.50
3690;DHT22;1861;50.240;8.596;2023-02-28T14:11:37;8.20;67.10
3690;DHT22;1861;50.240;8.596;2023-02-28T14:14:07;8.20;66.80
3690;DHT22;1861;50.240;8.596;2023-02-28T14:16:39;8.20;67.00
3690;DHT22;1861;50.240;8.596;2023-02-28T14:19:12;8.20;67.30
3690;DHT22;1861;50.240;8.596;2023-02-28T14:21:50;8.10;66.50
3690;DHT22;1861;50.240;8.596;2023-02-28T14:24:42;8.10;66.30
3690;DHT22;1861;50.240;8.596;2023-02-28T14:27:24;8.10;66.70
3690;DHT22;1861;50.240;8.596;2023-02-28T14:30:19;8.10;66.30
3690;DHT22;1861;50.240;8.596;2023-02-28T14:33:01;8.10;66.40
3690;DHT22;1861;50.240;8.596;2023-02-28T14:35:50;8.10;65.90
3690;DHT22;1861;50.240;8.596;2023-02-28T14:38:23;8.10;67.10
3690;DHT22;1861;50.240;8.596;2023-02-28T14:40:55;8.00;67.00
3690;DHT22;1861;50.240;8.596;2023-02-28T14:43:27;8.10;67.70
3690;DHT22;1861;50.240;8.596;2023-02-28T14:45:58;8.00;66.80
3690;DHT22;1861;50.240;8.596;2023-02-28T14:48:27;8.10;67.10
3690;DHT22;1861;50.240;8.596;2023-02-28T14:50:57;8.00;66.40
3690;DHT22;1861;50.240;8.596;2023-02-28T14:53:28;8.00;66.30
3690;DHT22;1861;50.240;8.596;2023-02-28T14:55:56;8.00;67.20
3690;DHT22;1861;50.240;8.596;2023-02-28T14:58:27;8.00;66.90
3690;DHT22;1861;50.240;8.596;2023-02-28T15:00:58;7.90;66.40
3690;DHT22;1861;50.240;8.596;2023-02-28T15:03:31;8.00;67.30
3690;DHT22;1861;50.240;8.596;2023-02-28T15:06:01;8.00;67.10
3690;DHT22;1861;50.240;8.596;2023-02-28T15:08:30;8.00;67.00
3690;DHT22;1861;50.240;8.596;2023-02-28T15:11:05;7.90;67.50
3690;DHT22;1861;50.240;8.596;2023-02-28T15:13:38;7.90;67.20
3690;DHT22;1861;50.240;8.596;2023-02-28T15:16:10;7.90;67.60
3690;DHT22;1861;50.240;8.596;2023-02-28T15:18:44;7.90;67.60
3690;DHT22;1861;50.240;8.596;2023-02-28T15:21:15;7.90;67.20
3690;DHT22;1861;50.240;8.596;2023-02-28T15:23:47;7.90;67.10
3690;DHT22;1861;50.240;8.596;2023-02-28T15:26:19;7.90;67.70
3690;DHT22;1861;50.240;8.596;2023-02-28T15:28:52;7.90;67.40
3690;DHT22;1861;50.240;8.596;2023-02-28T15:31:26;7.80;67.60
3690;DHT22;1861;50.240;8.596;2023-02-28T15:34:04;7.80;67.50
3690;DHT22;1861;50.240;8.596;2023-02-28T15:36:33;7.90;67.30
3690;DHT22;1861;50.240;8.596;2023-02-28T15:39:18;7.90;68.00
3690;DHT22;1861;50.240;8.596;2023-02-28T15:41:46;7.90;68.10
3690;DHT22;1861;50.240;8.596;2023-02-28T15:44:17;7.90;68.00
3690;DHT22;1861;50.240;8.596;2023-02-28T15:46:55;7.90;67.80
3690;DHT22;1861;50.240;8.596;2023-02-28T15:49:25;7.90;67.80
3690;DHT22;1861;50.240;8.596;2023-02-28T15:51:56;7.80;67.70
3690;DHT22;1861;50.240;8.596;2023-02-28T15:54:28;7.80;68.10
3690;DHT22;1861;50.240;8.596;2023-02-28T15:57:00;7.70;67.50
3690;DHT22;1861;50.240;8.596;2023-02-28T15:59:31;7.70;67.80
3690;DHT22;1861;50.240;8.596;2023-02-28T16:02:12;7.70;68.00
3690;DHT22;1861;50.240;8.596;2023-02-28T16:05:01;7.70;68.10
3690;DHT22;1861;50.240;8.596;2023-02-28T16:07:30;7.60;68.10
3690;DHT22;1861;50.240;8.596;2023-02-28T16:09:58;7.50;68.40
3690;DHT22;1861;50.240;8.596;2023-02-28T16:12:28;7.50;68.20
3690;DHT22;1861;50.240;8.596;2023-02-28T16:15:00;7.50;68.20
3690;DHT22;1861;50.240;8.596;2023-02-28T16:17:33;7.50;68.40
3690;DHT22;1861;50.240;8.596;2023-02-28T16:20:05;7.40;68.70
3690;DHT22;1861;50.240;8.596;2023-02-28T16:22:33;7.40;68.20
3690;DHT22;1861;50.240;8.596;2023-02-28T16:25:01;7.40;68.00
3690;DHT22;1861;50.240;8.596;2023-02-28T16:27:35;7.30;68.90
3690;DHT22;1861;50.240;8.596;2023-02-28T16:30:18;7.20;68.10
3690;DHT22;1861;50.240;8.596;2023-02-28T16:32:47;7.20;68.00
3690;DHT22;1861;50.240;8.596;2023-02-28T16:35:16;7.10;68.20
3690;DHT22;1861;50.240;8.596;2023-02-28T16:37:45;7.20;69.10
3690;DHT22;1861;50.240;8.596;2023-02-28T16:40:14;7.20;68.40
3690;DHT22;1861;50.240;8.596;2023-02-28T16:42:43;7.10;68.90
3690;DHT22;1861;50.240;8.596;2023-02-28T16:45:17;7.10;68.80
3690;DHT22;1861;50.240;8.596;2023-02-28T16:47:47;7.10;69.20
3690;DHT22;1861;50.240;8.596;2023-02-28T16:50:16;7.10;68.90
3690;DHT22;1861;50.240;8.596;2023-02-28T16:52:45;7.00;69.10
3690;DHT22;1861;50.240;8.596;2023-02-28T16:55:13;7.00;69.00
3690;DHT22;1861;50.240;8.596;2023-02-28T16:57:43;6.90;68.70
3690;DHT22;1861;50.240;8.596;2023-02-28T17:00:12;6.90;68.30